Terminal Aerodrome Forecast
Issued by NWS

Home | Current Version | Previous Version | Text Only | Print | Product List | Glossary On
Versions: 1 2 3 4 5 6 7 8 9 10 11 12
000
FTUS42 KMLB 181700
TAFLEE
TAF
KLEE 181720Z 1818/1918 35006KT P6SM SCT250
     FM190100 34002KT P6SM BKN250
     FM191400 03003KT P6SM BKN250
     FM191600 06005KT P6SM BKN250=

USA.gov is the U.S. government's official web portal to all federal, state and local government web resources and services.